Newport, NC

8:14 PM EST on March 05, 2015 (GMT -0500)
Southpark | Change Station
CLOSE
Current Station
Personal Weather Station
Location: Newport, NC
Elevation: 19 ft
Nearby Weather Stations

Elev 19 ft 34.79 °N, 76.86 °W | Updated 4 minutes ago

Mostly Cloudy
Mostly Cloudy
40.1 °F
Feels Like 40 °F
N
1.0
Wind Variable Wind from NNW
Gusts 2.0 mph

Today
High -- | Low -- °F
--% Chance of Precip.
Yesterday
High -- | Low -- °F
Precip. -- in
6:31 AM 6:06 PM
Full, 100% visible
Pressure 30.14 in
Visibility 6.0 miles
Clouds Mostly Cloudy 700 ft
Mostly Cloudy 1800 ft
Overcast 2400 ft
Windchill 40 °F
Dew Point 37 °F
Humidity 89%
Rainfall in
Snow Depth Not available.
UV 0 out of 12
Pollen 7.00 out of 12
Air Quality Not available.
Flu Activity Not available.
METAR KNKT 060054Z 02012KT 6SM -RA BR BKN007 BKN018 OVC024 04/03 A3015 RMK AO2 SLP206 P0009 T00440033 $

More Conditions Fewer Conditions

Pressure 30.14 in
Visibility 6.0 miles
Clouds Mostly Cloudy 700 ft
Mostly Cloudy 1800 ft
Overcast 2400 ft
Windchill 40 °F
Dew Point 37 °F
Humidity 89%
Rainfall in
Snow Depth Not available.
UV 0 out of 12
Pollen 7.00 out of 12
Air Quality Not available.
Flu Activity Not available.
METAR KNKT 060054Z 02012KT 6SM -RA BR BKN007 BKN018 OVC024 04/03 A3015 RMK AO2 SLP206 P0009 T00440033 $

More Conditions Fewer Conditions

10-Day Weather Forecast

Almanac

Astronomy

Mar. 05, 2015 Rise Set
Actual Time
Civil Twilight
Nautical Twilight
Astronomical Twilight
Moon
Length of Visible Light
Length of Day
Tomorrow will be .
, % of the Moon is Illuminated

Today's Extremes

State Highs State Lows

Community

WunderPhotos

Upload Photos

1,803,092 photos uploaded!

WunderBlogs® & News

Nearby

Air Quality

  Air Quality AQ Index Pollutant
Not available.

Snow Depth

Station Depth Elevation

Earthquake Activity

City Distance Mag. Time & Date
Minimum magnitude displayed is 2.5.

Coastal Water Temperatures

Place Temperature

Nearby Weather Stations